createdAt,value
2018-07-20T00:00:09.206Z,18.90
2018-07-20T00:03:33.652Z,18.80
2018-07-20T00:06:58.077Z,18.80
2018-07-20T00:10:22.554Z,18.70
2018-07-20T00:13:47.012Z,18.70
2018-07-20T00:17:11.458Z,18.70
2018-07-20T00:20:35.894Z,18.60
2018-07-20T00:24:00.388Z,18.60
2018-07-20T00:27:25.004Z,18.50
2018-07-20T00:30:49.483Z,18.40
2018-07-20T00:34:13.951Z,18.40
2018-07-20T00:37:38.387Z,18.30
2018-07-20T00:41:02.813Z,18.30
2018-07-20T00:44:27.312Z,18.30
2018-07-20T00:47:51.705Z,18.20
2018-07-20T00:51:16.162Z,18.20
2018-07-20T00:58:04.763Z,18.00
2018-07-20T01:01:29.187Z,18.00
2018-07-20T01:04:53.638Z,17.90
2018-07-20T01:08:18.089Z,17.90
2018-07-20T01:11:42.507Z,17.80
2018-07-20T01:15:06.985Z,17.80
2018-07-20T01:18:31.421Z,17.80
2018-07-20T01:21:55.846Z,17.70
2018-07-20T01:25:20.302Z,17.70
2018-07-20T01:28:44.751Z,17.60
2018-07-20T01:32:10.241Z,17.60
2018-07-20T01:35:34.657Z,17.50
2018-07-20T01:38:59.071Z,17.50
2018-07-20T01:42:23.534Z,17.50
2018-07-20T01:45:48.004Z,17.40
2018-07-20T01:49:12.460Z,17.40
2018-07-20T01:52:36.967Z,17.30
2018-07-20T01:56:01.425Z,17.20
2018-07-20T01:59:25.897Z,17.20
2018-07-20T02:02:50.327Z,17.10
2018-07-20T02:06:14.753Z,17.10
2018-07-20T02:09:39.171Z,17.10
2018-07-20T02:13:03.676Z,17.00
2018-07-20T02:16:28.120Z,16.90
2018-07-20T02:19:52.560Z,16.90
2018-07-20T02:23:17.022Z,16.90
2018-07-20T02:26:41.429Z,16.80
2018-07-20T02:33:30.619Z,16.80
2018-07-20T02:36:55.026Z,16.80
2018-07-20T02:40:19.519Z,16.80
2018-07-20T02:43:43.947Z,16.70
2018-07-20T02:47:08.402Z,16.60
2018-07-20T02:50:32.892Z,16.50
2018-07-20T02:53:57.348Z,16.50
2018-07-20T02:57:21.785Z,16.50
2018-07-20T03:00:46.238Z,16.40
2018-07-20T03:04:10.671Z,16.40
2018-07-20T03:07:35.128Z,16.30
2018-07-20T03:10:59.538Z,16.30
2018-07-20T03:14:24.002Z,16.20
2018-07-20T03:17:48.465Z,16.30
2018-07-20T03:21:12.867Z,16.20
2018-07-20T03:24:37.283Z,16.20
2018-07-20T03:28:01.786Z,16.10
2018-07-20T03:31:26.204Z,16.10
2018-07-20T03:34:50.668Z,16.00
2018-07-20T03:38:15.150Z,16.00
2018-07-20T03:41:39.918Z,16.00
2018-07-20T03:45:04.805Z,16.00
2018-07-20T03:48:29.272Z,16.00
2018-07-20T03:51:53.834Z,16.00
2018-07-20T03:55:18.283Z,16.00
2018-07-20T03:58:42.776Z,16.00
2018-07-20T04:02:07.266Z,16.00
2018-07-20T04:05:31.702Z,15.90
2018-07-20T04:08:56.134Z,15.90
2018-07-20T04:12:20.605Z,16.00
2018-07-20T04:15:45.066Z,16.00
2018-07-20T04:19:09.549Z,16.00
2018-07-20T04:22:33.967Z,16.10
2018-07-20T04:25:58.428Z,16.10
2018-07-20T04:29:22.965Z,16.10
2018-07-20T04:32:47.394Z,16.10
2018-07-20T04:36:11.833Z,16.20
2018-07-20T04:39:36.292Z,16.30
2018-07-20T04:43:00.742Z,16.30
2018-07-20T04:46:25.171Z,16.30
2018-07-20T04:49:49.603Z,16.40
2018-07-20T04:53:14.045Z,16.50
2018-07-20T04:56:38.478Z,16.50
2018-07-20T05:00:02.994Z,16.50
2018-07-20T05:03:27.437Z,16.60
2018-07-20T05:06:51.860Z,16.70
2018-07-20T05:10:16.345Z,16.70
2018-07-20T05:13:40.810Z,16.90
2018-07-20T05:17:05.245Z,17.00
2018-07-20T05:20:29.716Z,17.10
2018-07-20T05:23:54.163Z,17.10
2018-07-20T05:27:18.567Z,17.30
2018-07-20T05:30:43.015Z,17.40
2018-07-20T05:34:07.473Z,17.40
2018-07-20T05:37:31.941Z,17.50
2018-07-20T05:40:56.411Z,17.60
2018-07-20T05:44:21.418Z,17.70
2018-07-20T05:47:45.891Z,17.80
2018-07-20T05:51:10.437Z,17.90
2018-07-20T05:54:34.868Z,18.00
2018-07-20T05:57:59.347Z,18.10
2018-07-20T06:01:23.800Z,18.20
2018-07-20T06:04:48.235Z,18.20
2018-07-20T06:08:12.697Z,18.40
2018-07-20T06:11:37.202Z,18.50
2018-07-20T06:15:01.660Z,18.70
2018-07-20T06:18:32.721Z,18.80
2018-07-20T06:21:57.209Z,18.90
2018-07-20T06:25:21.713Z,19.00
2018-07-20T06:28:46.182Z,19.20
2018-07-20T06:32:10.656Z,19.30
2018-07-20T06:35:35.169Z,19.40
2018-07-20T06:38:59.687Z,19.50
2018-07-20T06:42:24.249Z,19.60
2018-07-20T06:45:48.779Z,19.60
2018-07-20T06:49:13.210Z,19.70
2018-07-20T06:52:37.696Z,19.80
2018-07-20T06:56:02.179Z,19.90
2018-07-20T06:59:26.663Z,20.00
2018-07-20T07:02:51.155Z,20.10
2018-07-20T07:06:15.655Z,20.20
2018-07-20T07:09:40.131Z,20.30
2018-07-20T07:13:04.640Z,20.40
2018-07-20T07:16:29.092Z,20.50
2018-07-20T07:19:53.613Z,20.60
2018-07-20T07:23:18.200Z,20.70
2018-07-20T07:26:42.637Z,20.80
2018-07-20T07:30:07.090Z,20.90
2018-07-20T07:33:31.597Z,21.10
2018-07-20T07:36:56.035Z,21.20
2018-07-20T07:40:20.623Z,21.30
2018-07-20T07:43:45.110Z,21.50
2018-07-20T07:47:09.836Z,21.60
2018-07-20T07:50:34.355Z,21.80
2018-07-20T07:53:58.828Z,22.00
2018-07-20T07:57:23.276Z,22.10
2018-07-20T08:00:47.747Z,22.20
2018-07-20T08:04:12.157Z,22.30
2018-07-20T08:07:36.599Z,22.40
2018-07-20T08:11:01.060Z,22.50
2018-07-20T08:14:25.483Z,22.60
2018-07-20T08:17:49.946Z,22.80
2018-07-20T08:21:14.464Z,22.90
2018-07-20T08:24:38.936Z,23.10
2018-07-20T08:28:03.413Z,23.40
2018-07-20T08:31:27.859Z,23.60
2018-07-20T08:34:52.328Z,23.70
2018-07-20T08:38:16.737Z,23.80
2018-07-20T08:41:41.168Z,23.80
2018-07-20T08:45:05.722Z,23.90
2018-07-20T08:48:30.166Z,24.00
2018-07-20T08:51:54.632Z,24.20
2018-07-20T08:55:19.087Z,24.30
2018-07-20T08:58:43.490Z,24.50
2018-07-20T09:02:08.079Z,24.70
2018-07-20T09:05:32.522Z,24.80
2018-07-20T09:08:56.986Z,25.00
2018-07-20T09:12:21.476Z,25.10
2018-07-20T09:15:45.900Z,25.20
2018-07-20T09:19:10.368Z,25.50
2018-07-20T09:22:34.792Z,25.70
2018-07-20T09:25:59.241Z,25.90
2018-07-20T09:29:23.658Z,26.00
2018-07-20T09:32:48.105Z,26.00
2018-07-20T09:36:12.520Z,26.30
2018-07-20T09:39:36.937Z,26.30
2018-07-20T09:43:01.437Z,26.60
2018-07-20T09:49:50.071Z,27.10
2018-07-20T09:53:14.519Z,26.90
2018-07-20T09:56:38.936Z,26.90
2018-07-20T10:00:03.460Z,27.20
2018-07-20T10:03:27.980Z,27.30
2018-07-20T10:06:52.449Z,27.30
2018-07-20T10:10:16.879Z,27.70
2018-07-20T10:13:41.307Z,28.00
2018-07-20T10:17:05.959Z,28.10
2018-07-20T10:20:30.451Z,27.90
2018-07-20T10:23:54.921Z,27.80
2018-07-20T10:27:21.224Z,28.20
2018-07-20T10:30:45.680Z,28.60
2018-07-20T10:34:10.111Z,28.80
2018-07-20T10:37:34.551Z,29.00
2018-07-20T10:40:59.025Z,29.40
2018-07-20T10:44:23.474Z,29.00
2018-07-20T10:47:47.887Z,29.60
2018-07-20T10:51:12.339Z,30.20
2018-07-20T10:54:36.799Z,30.80
2018-07-20T10:58:01.240Z,31.10
2018-07-20T11:01:25.810Z,31.90
2018-07-20T11:04:50.219Z,31.90
2018-07-20T11:08:14.671Z,32.80
2018-07-20T11:11:39.180Z,32.70
2018-07-20T11:15:03.763Z,33.20
2018-07-20T11:18:28.199Z,34.00
2018-07-20T11:21:52.670Z,35.20
2018-07-20T11:25:17.246Z,35.30
2018-07-20T11:28:41.679Z,35.60
2018-07-20T11:32:06.154Z,35.50
2018-07-20T11:35:30.625Z,34.90
2018-07-20T11:38:55.034Z,35.00
2018-07-20T11:42:19.480Z,35.50
2018-07-20T11:45:43.929Z,36.90
2018-07-20T11:49:08.390Z,37.20
2018-07-20T11:52:32.840Z,37.20
2018-07-20T11:55:57.329Z,37.00
2018-07-20T11:59:21.827Z,36.70
2018-07-20T12:02:46.230Z,36.70
2018-07-20T12:06:10.686Z,36.90
2018-07-20T12:09:35.108Z,36.80
2018-07-20T12:12:59.529Z,36.30
2018-07-20T12:16:24.083Z,36.30
2018-07-20T12:19:49.515Z,37.70
2018-07-20T12:23:13.938Z,38.60
2018-07-20T12:26:38.371Z,38.20
2018-07-20T12:30:02.788Z,38.80
2018-07-20T12:33:27.239Z,38.90
2018-07-20T12:36:51.678Z,38.90
2018-07-20T12:40:16.158Z,39.20
2018-07-20T12:43:40.637Z,39.50
2018-07-20T12:47:05.143Z,39.50
2018-07-20T12:50:29.615Z,40.10
2018-07-20T12:53:54.059Z,40.70
2018-07-20T12:57:18.541Z,41.00
2018-07-20T13:00:42.997Z,41.20
2018-07-20T13:04:07.486Z,41.50
2018-07-20T13:07:31.912Z,40.20
2018-07-20T13:10:56.352Z,39.20
2018-07-20T13:14:20.815Z,39.40
2018-07-20T13:17:53.067Z,38.80
2018-07-20T13:21:17.542Z,38.40
2018-07-20T13:24:41.988Z,37.60
2018-07-20T13:28:06.515Z,37.40
2018-07-20T13:31:30.964Z,38.70
2018-07-20T13:34:55.437Z,40.10
2018-07-20T13:38:19.882Z,41.20
2018-07-20T13:41:44.343Z,41.60
2018-07-20T13:45:09.063Z,42.30
2018-07-20T13:48:33.484Z,42.60
2018-07-20T13:51:57.951Z,42.80
2018-07-20T13:55:22.444Z,43.30
2018-07-20T13:58:46.870Z,44.00
2018-07-20T14:02:11.561Z,43.30
2018-07-20T14:05:36.027Z,42.50
2018-07-20T14:09:00.496Z,43.00
2018-07-20T14:12:24.995Z,43.40
2018-07-20T14:15:49.437Z,43.00
2018-07-20T14:19:13.861Z,43.70
2018-07-20T14:22:38.456Z,43.30
2018-07-20T14:26:02.876Z,43.50
2018-07-20T14:32:51.494Z,43.30
2018-07-20T14:36:15.950Z,44.00
2018-07-20T14:39:40.412Z,44.50
2018-07-20T14:43:04.979Z,45.10
2018-07-20T14:46:29.510Z,45.70
2018-07-20T14:53:18.803Z,46.10
2018-07-20T14:56:43.278Z,46.70
2018-07-20T15:00:07.814Z,46.30
2018-07-20T15:03:32.287Z,46.50
2018-07-20T15:06:56.815Z,46.50
2018-07-20T15:10:21.280Z,46.90
2018-07-20T15:13:45.777Z,47.60
2018-07-20T15:17:10.314Z,46.50
2018-07-20T15:20:34.751Z,45.40
2018-07-20T15:23:59.243Z,45.60
2018-07-20T15:27:23.717Z,46.20
2018-07-20T15:30:51.138Z,46.60
2018-07-20T15:34:15.521Z,46.40
2018-07-20T15:37:39.937Z,46.50
2018-07-20T15:41:04.419Z,45.20
2018-07-20T15:44:28.876Z,45.40
2018-07-20T15:47:53.349Z,46.60
2018-07-20T15:51:17.777Z,45.90
2018-07-20T15:54:42.193Z,46.30
2018-07-20T15:58:06.636Z,45.60
2018-07-20T16:01:31.127Z,45.50
2018-07-20T16:04:55.768Z,45.50
2018-07-20T16:08:20.276Z,45.30
2018-07-20T16:11:44.756Z,44.80
2018-07-20T16:15:09.238Z,45.10
2018-07-20T16:18:33.684Z,45.40
2018-07-20T16:21:58.154Z,45.30
2018-07-20T16:25:22.684Z,45.90
2018-07-20T16:28:47.193Z,45.80
2018-07-20T16:32:11.672Z,43.90
2018-07-20T16:35:36.164Z,41.80
2018-07-20T16:39:00.669Z,40.10
2018-07-20T16:42:25.162Z,38.30
2018-07-20T16:45:49.613Z,37.30
2018-07-20T16:49:14.080Z,35.90
2018-07-20T16:52:38.535Z,35.30
2018-07-20T16:56:03.011Z,34.60
2018-07-20T16:59:27.404Z,33.50
2018-07-20T17:02:51.845Z,32.80
2018-07-20T17:06:16.258Z,32.40
2018-07-20T17:09:40.690Z,32.00
2018-07-20T17:13:05.174Z,31.70
2018-07-20T17:16:32.440Z,31.50
2018-07-20T17:19:56.860Z,31.30
2018-07-20T17:23:21.293Z,30.90
2018-07-20T17:26:45.728Z,30.60
2018-07-20T17:30:10.196Z,30.40
2018-07-20T17:33:34.667Z,30.20
2018-07-20T17:36:59.141Z,30.00
2018-07-20T17:40:23.647Z,29.80
2018-07-20T17:43:48.090Z,29.70
2018-07-20T17:47:12.925Z,29.60
2018-07-20T17:50:37.440Z,29.40
2018-07-20T17:54:01.882Z,29.30
2018-07-20T17:57:26.355Z,29.10
2018-07-20T18:00:50.779Z,29.00
2018-07-20T18:04:15.209Z,29.10
2018-07-20T18:07:39.672Z,28.90
2018-07-20T18:11:04.133Z,28.60
2018-07-20T18:14:28.583Z,28.30
2018-07-20T18:17:53.053Z,28.20
2018-07-20T18:21:17.495Z,27.90
2018-07-20T18:24:41.975Z,27.90
2018-07-20T18:28:06.406Z,27.70
2018-07-20T18:31:30.903Z,27.60
2018-07-20T18:34:55.376Z,27.70
2018-07-20T18:38:19.798Z,27.70
2018-07-20T18:41:44.210Z,27.50
2018-07-20T18:45:09.542Z,27.40
2018-07-20T18:48:33.979Z,27.20
2018-07-20T18:51:58.458Z,27.00
2018-07-20T18:55:22.913Z,26.80
2018-07-20T18:58:47.322Z,26.80
2018-07-20T19:02:12.234Z,26.70
2018-07-20T19:05:36.766Z,26.50
2018-07-20T19:09:01.212Z,26.40
2018-07-20T19:12:25.694Z,26.20
2018-07-20T19:15:50.114Z,26.00
2018-07-20T19:19:14.591Z,26.00
2018-07-20T19:22:39.044Z,25.90
2018-07-20T19:26:03.496Z,25.80
2018-07-20T19:29:27.966Z,25.70
2018-07-20T19:32:52.501Z,25.70
2018-07-20T19:36:16.963Z,25.60
2018-07-20T19:39:41.408Z,25.60
2018-07-20T19:43:05.880Z,25.60
2018-07-20T19:46:30.341Z,25.60
2018-07-20T19:49:54.745Z,25.50
2018-07-20T19:53:19.207Z,25.50
2018-07-20T19:56:43.651Z,25.40
2018-07-20T20:00:10.667Z,25.30
2018-07-20T20:03:35.173Z,25.20
2018-07-20T20:06:59.586Z,25.10
2018-07-20T20:10:24.126Z,25.00
2018-07-20T20:13:48.603Z,24.90
2018-07-20T20:17:13.111Z,24.80
2018-07-20T20:20:37.559Z,24.80
2018-07-20T20:24:02.021Z,24.80
2018-07-20T20:27:26.466Z,24.70
2018-07-20T20:30:50.933Z,24.50
2018-07-20T20:34:15.391Z,24.40
2018-07-20T20:37:39.859Z,24.20
2018-07-20T20:41:04.322Z,24.10
2018-07-20T20:44:28.768Z,24.00
2018-07-20T20:47:53.206Z,24.00
2018-07-20T20:51:17.655Z,23.90
2018-07-20T20:54:42.093Z,23.90
2018-07-20T20:58:06.571Z,23.90
2018-07-20T21:01:31.017Z,23.90
2018-07-20T21:04:55.543Z,23.90
2018-07-20T21:08:19.982Z,23.90
2018-07-20T21:15:08.604Z,23.80
2018-07-20T21:18:33.008Z,23.80
2018-07-20T21:21:57.475Z,23.80
2018-07-20T21:25:21.922Z,23.80
2018-07-20T21:28:46.327Z,23.80
2018-07-20T21:32:10.760Z,23.80
2018-07-20T21:35:35.304Z,23.70
2018-07-20T21:38:59.742Z,23.70
2018-07-20T21:42:24.202Z,23.60
2018-07-20T21:45:48.673Z,23.60
2018-07-20T21:49:13.120Z,23.50
2018-07-20T21:52:37.568Z,23.50
2018-07-20T21:56:02.002Z,23.50
2018-07-20T21:59:26.416Z,23.40
2018-07-20T22:02:50.885Z,23.40
2018-07-20T22:06:15.335Z,23.30
2018-07-20T22:09:39.764Z,23.20
2018-07-20T22:13:04.233Z,23.30
2018-07-20T22:16:28.688Z,23.10
2018-07-20T22:19:53.110Z,23.10
2018-07-20T22:23:17.621Z,23.10
2018-07-20T22:26:41.989Z,23.20
2018-07-20T22:30:08.877Z,23.10
2018-07-20T22:33:33.312Z,23.10
2018-07-20T22:36:57.785Z,23.00
2018-07-20T22:40:22.212Z,23.00
2018-07-20T22:43:46.658Z,23.00
2018-07-20T22:47:11.288Z,23.00
2018-07-20T22:50:35.731Z,22.90
2018-07-20T22:54:00.163Z,22.90
2018-07-20T22:57:24.649Z,22.90
2018-07-20T23:00:49.083Z,22.90
2018-07-20T23:04:13.523Z,22.90
2018-07-20T23:07:37.979Z,22.90
2018-07-20T23:11:02.409Z,22.90
2018-07-20T23:14:26.830Z,22.90
2018-07-20T23:17:51.322Z,22.90
2018-07-20T23:21:15.827Z,22.90
2018-07-20T23:24:40.267Z,22.90
2018-07-20T23:28:04.728Z,22.80
2018-07-20T23:31:29.259Z,22.70
2018-07-20T23:34:53.686Z,22.70
2018-07-20T23:38:18.107Z,22.70
2018-07-20T23:41:42.537Z,22.60
2018-07-20T23:45:07.039Z,22.50
2018-07-20T23:48:31.513Z,22.50
2018-07-20T23:51:55.966Z,22.40
2018-07-20T23:55:20.447Z,22.40
2018-07-20T23:58:44.932Z,22.40
